Time;durP1;ratioP1;P1;durP2;ratioP2;P2;SDS_P1;SDS_P2;PMS_P1;PMS_P2;Temp;Humidity;BMP_temperature;BMP_pressure;BME280_temperature;BME280_humidity;BME280_pressure;Samples;Min_cycle;Max_cycle;Signal;HPM_P1;HPM_P2
2023/08/03 00:01:30;;;;;;;9.50;8.00;;;;;;;18.68;100.00;100280.11;109444;1244;60115;-67
2023/08/03 00:04:00;;;;;;;9.60;7.40;;;;;;;18.80;100.00;100280.27;109506;1247;61755;-64
2023/08/03 00:06:29;;;;;;;11.90;9.00;;;;;;;18.89;100.00;100281.55;109514;1244;62130;-67
2023/08/03 00:08:58;;;;;;;9.70;8.10;;;;;;;18.97;100.00;100283.45;109492;1247;59494;-65
2023/08/03 00:11:27;;;;;;;10.40;7.70;;;;;;;18.92;100.00;100288.94;109485;1244;72998;-65
2023/08/03 00:13:55;;;;;;;7.40;6.60;;;;;;;18.72;100.00;100289.15;109494;1244;63133;-66
2023/08/03 00:16:24;;;;;;;9.10;7.00;;;;;;;18.55;100.00;100288.21;109524;1246;57659;-65
2023/08/03 00:18:53;;;;;;;10.70;8.10;;;;;;;18.33;100.00;100287.45;109508;1244;72516;-65
2023/08/03 00:21:21;;;;;;;9.30;8.10;;;;;;;18.22;100.00;100286.44;109576;1244;72282;-65
2023/08/03 00:23:50;;;;;;;8.90;7.60;;;;;;;18.13;100.00;100285.58;109451;1247;60517;-65
2023/08/03 00:26:19;;;;;;;10.10;8.00;;;;;;;18.06;100.00;100284.23;109495;1244;71477;-65
2023/08/03 00:28:47;;;;;;;9.10;7.40;;;;;;;18.06;100.00;100286.15;109378;1244;63100;-66
2023/08/03 00:31:17;;;;;;;9.20;7.80;;;;;;;18.07;100.00;100284.79;109283;1244;60885;-66
2023/08/03 00:33:45;;;;;;;8.70;7.10;;;;;;;18.03;100.00;100287.31;109372;1244;72141;-67
2023/08/03 00:36:14;;;;;;;9.40;7.80;;;;;;;17.92;100.00;100287.02;109460;1247;61406;-65
2023/08/03 00:38:43;;;;;;;10.40;8.40;;;;;;;17.89;100.00;100292.02;109515;1244;69884;-65
2023/08/03 00:41:12;;;;;;;10.70;8.90;;;;;;;18.03;100.00;100296.64;109436;1245;63427;-65
2023/08/03 00:43:42;;;;;;;9.50;7.90;;;;;;;18.07;100.00;100304.02;109306;1247;61887;-67
2023/08/03 00:46:10;;;;;;;9.10;7.80;;;;;;;17.99;100.00;100297.80;109540;1244;57263;-67
2023/08/03 00:48:39;;;;;;;9.20;7.70;;;;;;;17.87;100.00;100303.51;109539;1245;61151;-67
2023/08/03 00:51:08;;;;;;;10.00;7.50;;;;;;;17.73;100.00;100307.54;109353;1244;61473;-67
2023/08/03 00:53:37;;;;;;;9.90;8.00;;;;;;;17.62;100.00;100311.77;109369;1244;70152;-67
2023/08/03 00:56:05;;;;;;;9.70;8.20;;;;;;;17.64;100.00;100312.40;109517;1244;74115;-67
2023/08/03 00:58:34;;;;;;;9.80;8.40;;;;;;;17.95;100.00;100309.34;109456;1245;57199;-68
2023/08/03 01:01:03;;;;;;;11.40;8.00;;;;;;;18.04;100.00;100309.25;109401;1244;61006;-66
2023/08/03 01:03:32;;;;;;;12.20;8.00;;;;;;;17.90;100.00;100307.43;109501;1244;72875;-66
2023/08/03 01:06:01;;;;;;;8.80;7.60;;;;;;;17.78;100.00;100309.49;109522;1244;63650;-67
2023/08/03 01:08:30;;;;;;;10.10;8.10;;;;;;;17.63;100.00;100310.17;109630;1241;70323;-66
2023/08/03 01:10:58;;;;;;;10.40;7.90;;;;;;;17.50;100.00;100310.05;109618;1241;74498;-67
2023/08/03 01:13:27;;;;;;;11.00;8.10;;;;;;;17.37;100.00;100308.77;109838;1243;57284;-63
2023/08/03 01:15:57;;;;;;;15.00;8.30;;;;;;;17.32;100.00;100310.20;109823;1241;57691;-63
2023/08/03 01:18:25;;;;;;;10.80;8.50;;;;;;;17.34;100.00;100312.80;109714;1241;73314;-66
2023/08/03 01:20:56;;;;;;;10.60;7.90;;;;;;;17.29;100.00;100313.30;109718;1242;61908;-64
2023/08/03 01:23:24;;;;;;;10.10;8.20;;;;;;;17.22;100.00;100312.14;109588;1241;61650;-64
2023/08/03 01:25:53;;;;;;;12.10;8.60;;;;;;;17.19;100.00;100316.10;109724;1241;71999;-65
2023/08/03 01:28:22;;;;;;;9.50;8.30;;;;;;;17.16;100.00;100318.01;109742;1242;57234;-66
2023/08/03 01:30:51;;;;;;;10.50;9.00;;;;;;;17.11;100.00;100322.98;109818;1241;60278;-64
2023/08/03 01:33:20;;;;;;;10.30;8.30;;;;;;;17.05;100.00;100319.93;109625;1241;73213;-64
2023/08/03 01:35:51;;;;;;;9.80;8.10;;;;;;;16.95;100.00;100327.44;109804;1241;71894;-64
2023/08/03 01:38:20;;;;;;;9.40;8.40;;;;;;;16.92;100.00;100329.51;109624;1245;59374;-64
2023/08/03 01:40:49;;;;;;;11.70;8.70;;;;;;;16.91;100.00;100326.83;109726;1241;73682;-65
2023/08/03 01:43:17;;;;;;;10.10;7.90;;;;;;;16.89;100.00;100324.79;109822;1243;63027;-65
2023/08/03 01:45:46;;;;;;;10.60;8.00;;;;;;;16.89;100.00;100325.64;109710;1244;57744;-65
2023/08/03 01:48:15;;;;;;;11.30;9.50;;;;;;;16.87;100.00;100326.42;109773;1241;63310;-64
2023/08/03 01:50:43;;;;;;;11.70;8.70;;;;;;;16.82;100.00;100322.15;109716;1241;72006;-66
2023/08/03 01:53:15;;;;;;;10.60;8.10;;;;;;;16.75;100.00;100320.08;109830;1243;59499;-64
2023/08/03 01:55:48;;;;;;;14.10;9.60;;;;;;;16.74;100.00;100326.86;109808;1242;73518;-64
2023/08/03 01:58:16;;;;;;;10.70;8.60;;;;;;;16.77;100.00;100321.13;109776;1242;62317;-66
2023/08/03 02:00:45;;;;;;;10.90;8.80;;;;;;;16.69;100.00;100321.87;109697;1244;58080;-66
2023/08/03 02:03:17;;;;;;;11.40;8.60;;;;;;;16.69;100.00;100320.87;109720;1241;62749;-65
2023/08/03 02:05:46;;;;;;;11.90;8.80;;;;;;;16.71;100.00;100316.27;109785;1241;60906;-65
2023/08/03 02:08:15;;;;;;;9.60;8.00;;;;;;;16.96;100.00;100315.66;109689;1241;70241;-65
2023/08/03 02:10:43;;;;;;;10.20;8.20;;;;;;;16.95;100.00;100319.75;109688;1241;73988;-65
2023/08/03 02:13:12;;;;;;;11.70;9.80;;;;;;;16.93;100.00;100323.80;109694;1242;57669;-64
2023/08/03 02:15:41;;;;;;;10.30;9.00;;;;;;;16.85;100.00;100323.55;109779;1241;59421;-64
2023/08/03 02:18:10;;;;;;;12.10;10.10;;;;;;;16.79;100.00;100318.48;109753;1241;73029;-64
2023/08/03 02:20:38;;;;;;;16.00;10.10;;;;;;;16.71;100.00;100314.72;109529;1245;72237;-65
2023/08/03 02:23:07;;;;;;;13.30;9.10;;;;;;;16.84;100.00;100313.31;109551;1245;59442;-64
2023/08/03 02:25:36;;;;;;;10.70;9.30;;;;;;;17.07;100.00;100318.35;109380;1241;63163;-64
2023/08/03 02:28:05;;;;;;;11.50;9.20;;;;;;;17.11;100.00;100324.56;109505;1241;62440;-64
2023/08/03 02:30:34;;;;;;;14.80;9.40;;;;;;;17.38;100.00;100322.88;109532;1245;60449;-64
2023/08/03 02:33:03;;;;;;;10.90;8.90;;;;;;;17.50;100.00;100318.59;109525;1241;65343;-64
2023/08/03 02:35:34;;;;;;;12.00;8.60;;;;;;;17.50;100.00;100319.33;109532;1244;70173;-64
2023/08/03 02:38:03;;;;;;;11.40;8.30;;;;;;;17.53;100.00;100318.35;109530;1241;70077;-64
2023/08/03 02:40:32;;;;;;;10.70;8.30;;;;;;;17.39;100.00;100320.88;109450;1241;63115;-69
2023/08/03 02:43:01;;;;;;;11.20;8.40;;;;;;;17.22;100.00;100322.34;109626;1244;57693;-70
2023/08/03 02:45:31;;;;;;;12.30;8.40;;;;;;;17.08;100.00;100325.25;109647;1241;57119;-70
2023/08/03 02:48:01;;;;;;;11.80;8.50;;;;;;;16.98;100.00;100328.43;109723;1241;61934;-70
2023/08/03 02:50:30;;;;;;;12.30;9.50;;;;;;;16.88;100.00;100333.38;109678;1241;72042;-70
2023/08/03 02:52:59;;;;;;;12.50;10.00;;;;;;;16.86;100.00;100338.33;109612;1241;70204;-70
2023/08/03 02:55:28;;;;;;;12.70;9.30;;;;;;;16.80;100.00;100339.06;109650;1241;63351;-69
2023/08/03 02:57:57;;;;;;;12.30;10.10;;;;;;;16.74;100.00;100335.35;109505;1244;60488;-69
2023/08/03 03:00:26;;;;;;;12.50;9.40;;;;;;;16.87;100.00;100339.02;109642;1241;57698;-69
2023/08/03 03:02:55;;;;;;;10.20;8.70;;;;;;;17.17;100.00;100340.34;109665;1241;62013;-69
2023/08/03 03:05:24;;;;;;;10.70;9.00;;;;;;;17.21;100.00;100344.94;109711;1241;72090;-70
2023/08/03 03:07:53;;;;;;;12.00;9.10;;;;;;;17.16;100.00;100345.69;109600;1241;60278;-69
2023/08/03 03:10:22;;;;;;;13.90;8.80;;;;;;;17.01;100.00;100344.80;109604;1241;62523;-69
2023/08/03 03:12:52;;;;;;;10.80;8.60;;;;;;;16.86;100.00;100341.95;109673;1244;57201;-69
2023/08/03 03:15:21;;;;;;;10.70;8.80;;;;;;;16.72;100.00;100346.94;109624;1241;57598;-69
2023/08/03 03:17:50;;;;;;;11.10;8.50;;;;;;;16.60;100.00;100347.23;109618;1241;72765;-70
2023/08/03 03:20:19;;;;;;;10.90;8.80;;;;;;;16.62;100.00;100348.78;109729;1241;72168;-70
2023/08/03 03:22:47;;;;;;;13.10;9.40;;;;;;;16.69;100.00;100350.41;109662;1241;60580;-70
2023/08/03 03:25:17;;;;;;;11.90;9.10;;;;;;;16.68;100.00;100350.10;109620;1241;73757;-70
2023/08/03 03:27:45;;;;;;;14.70;9.40;;;;;;;16.68;100.00;100351.52;109672;1241;62533;-70
2023/08/03 03:30:16;;;;;;;10.90;8.70;;;;;;;16.63;100.00;100351.77;109734;1241;57717;-70
2023/08/03 03:32:45;;;;;;;13.20;8.70;;;;;;;16.57;100.00;100353.02;109634;1241;62744;-71
2023/08/03 03:35:14;;;;;;;10.10;9.10;;;;;;;16.57;100.00;100349.19;109644;1241;60697;-71
2023/08/03 03:37:43;;;;;;;13.80;9.70;;;;;;;16.56;100.00;100348.03;109748;1241;59807;-71
2023/08/03 03:40:12;;;;;;;12.60;10.20;;;;;;;16.56;100.00;100350.11;109519;1241;63153;-70
2023/08/03 03:42:42;;;;;;;12.90;10.00;;;;;;;16.63;100.00;100352.24;109550;1245;62603;-70
2023/08/03 03:45:11;;;;;;;13.70;10.30;;;;;;;16.74;100.00;100354.30;109591;1241;60907;-70
2023/08/03 03:47:39;;;;;;;16.70;11.90;;;;;;;16.78;100.00;100351.10;109603;1242;73865;-71
2023/08/03 03:50:09;;;;;;;28.20;19.60;;;;;;;16.80;100.00;100351.40;109598;1241;62040;-70
2023/08/03 03:52:38;;;;;;;12.40;9.70;;;;;;;16.84;100.00;100354.35;109606;1241;58980;-70
2023/08/03 03:55:08;;;;;;;13.60;10.60;;;;;;;16.87;100.00;100354.33;109462;1241;74189;-70
2023/08/03 03:57:38;;;;;;;20.50;11.90;;;;;;;16.95;100.00;100357.21;109618;1244;57623;-71
2023/08/03 04:00:07;;;;;;;16.00;12.20;;;;;;;17.01;100.00;100351.80;109652;1241;60046;-70
2023/08/03 04:02:41;;;;;;;17.40;13.40;;;;;;;17.09;100.00;100351.64;109668;1241;72127;-70
2023/08/03 04:05:15;;;;;;;18.10;14.20;;;;;;;17.23;100.00;100364.24;109480;1241;62521;-71
2023/08/03 04:07:44;;;;;;;17.30;13.60;;;;;;;17.31;100.00;100364.89;109602;1241;58973;-73
2023/08/03 04:10:13;;;;;;;20.50;14.90;;;;;;;17.38;100.00;100370.77;109568;1244;73842;-71
2023/08/03 04:12:41;;;;;;;17.10;12.40;;;;;;;17.50;100.00;100375.27;109574;1241;62286;-71
2023/08/03 04:15:10;;;;;;;19.00;12.50;;;;;;;17.67;100.00;100375.83;109569;1241;57670;-72
2023/08/03 04:17:39;;;;;;;17.20;11.80;;;;;;;17.79;100.00;100375.91;109695;1241;62781;-71
2023/08/03 04:20:12;;;;;;;15.40;12.50;;;;;;;17.96;100.00;100377.98;109647;1241;60750;-71
2023/08/03 04:22:41;;;;;;;15.70;12.40;;;;;;;18.19;100.00;100381.08;109443;1245;69697;-71
2023/08/03 04:25:15;;;;;;;16.50;12.20;;;;;;;18.29;100.00;100382.61;109463;1241;63975;-70
2023/08/03 04:27:47;;;;;;;15.50;12.20;;;;;;;18.49;100.00;100383.73;109763;1242;57174;-72
2023/08/03 04:30:20;;;;;;;;;;;;;;;18.78;100.00;100383.38;110011;1239;57670;-71
2023/08/03 04:32:48;;;;;;;15.50;11.80;;;;;;;18.90;100.00;100382.77;110043;1238;74099;-72
2023/08/03 04:35:18;;;;;;;15.70;11.40;;;;;;;18.98;100.00;100386.20;110052;1238;71866;-72
2023/08/03 04:37:52;;;;;;;14.80;11.60;;;;;;;19.04;100.00;100385.74;109906;1238;60134;-73
2023/08/03 04:40:21;;;;;;;13.30;11.30;;;;;;;19.14;100.00;100386.16;110042;1238;62491;-72
2023/08/03 04:42:50;;;;;;;14.80;11.30;;;;;;;19.24;100.00;100390.73;109972;1239;57840;-71
2023/08/03 04:45:19;;;;;;;15.90;11.60;;;;;;;19.33;100.00;100396.56;109807;1241;57192;-71
2023/08/03 04:47:48;;;;;;;16.00;11.30;;;;;;;19.41;100.00;100394.92;109867;1240;62014;-73
2023/08/03 04:50:20;;;;;;;19.60;12.40;;;;;;;19.47;100.00;100395.52;109889;1241;72216;-72
2023/08/03 04:52:49;;;;;;;17.90;11.90;;;;;;;19.54;100.00;100399.64;109920;1240;70788;-72
2023/08/03 04:55:20;;;;;;;18.00;12.90;;;;;;;19.61;100.00;100403.14;109940;1241;73603;-71
2023/08/03 04:57:49;;;;;;;19.00;12.30;;;;;;;19.67;100.00;100407.04;109861;1242;57650;-71
2023/08/03 05:00:19;;;;;;;16.60;12.60;;;;;;;19.73;100.00;100406.83;109739;1241;57180;-72
2023/08/03 05:02:50;;;;;;;22.40;13.20;;;;;;;19.80;100.00;100403.81;109867;1240;72325;-74
2023/08/03 05:05:19;;;;;;;23.20;12.10;;;;;;;19.86;100.00;100408.64;109818;1240;62175;-72
2023/08/03 05:07:49;;;;;;;15.20;11.60;;;;;;;19.89;100.00;100408.50;109780;1241;70348;-73
2023/08/03 05:10:22;;;;;;;;;;;;;;;19.91;100.00;100408.09;109771;1240;74012;-71
2023/08/03 05:12:51;;;;;;;14.20;11.00;;;;;;;19.97;100.00;100409.09;109560;1241;57737;-73
2023/08/03 05:15:20;;;;;;;15.00;11.40;;;;;;;20.06;100.00;100406.87;109704;1240;57676;-70
2023/08/03 05:17:49;;;;;;;14.50;10.30;;;;;;;20.15;100.00;100414.12;109840;1238;72526;-69
2023/08/03 05:20:18;;;;;;;15.70;10.20;;;;;;;20.23;100.00;100407.86;109950;1238;72491;-70
2023/08/03 05:22:47;;;;;;;14.20;10.60;;;;;;;20.30;100.00;100404.65;109811;1238;60260;-71
2023/08/03 05:25:16;;;;;;;15.30;10.90;;;;;;;20.40;100.00;100393.32;109821;1239;74436;-71
2023/08/03 05:27:44;;;;;;;14.80;9.00;;;;;;;20.60;100.00;100397.59;109702;1239;63115;-71
2023/08/03 05:30:13;;;;;;;11.80;9.20;;;;;;;20.76;100.00;100407.23;109763;1242;57772;-68
2023/08/03 05:32:42;;;;;;;18.70;9.30;;;;;;;20.91;100.00;100411.18;109735;1239;73345;-68
2023/08/03 05:35:12;;;;;;;11.20;7.10;;;;;;;21.03;100.00;100415.07;109865;1240;73478;-68
2023/08/03 05:37:41;;;;;;;7.80;6.10;;;;;;;21.20;100.00;100412.13;109914;1238;71204;-67
2023/08/03 05:40:10;;;;;;;8.10;5.80;;;;;;;21.39;100.00;100413.19;110022;1238;73026;-68
2023/08/03 05:42:41;;;;;;;7.40;5.10;;;;;;;21.54;100.00;100413.51;110048;1240;57127;-66
2023/08/03 05:45:32;;;;;;;8.90;6.20;;;;;;;21.68;100.00;100420.98;109963;1238;60982;-68
2023/08/03 05:48:03;;;;;;;8.20;6.10;;;;;;;21.77;100.00;100424.06;110005;1238;62006;-68
2023/08/03 05:50:33;;;;;;;9.00;5.80;;;;;;;21.87;100.00;100427.23;110018;1240;61161;-67
2023/08/03 05:53:05;;;;;;;8.10;5.70;;;;;;;21.95;100.00;100428.13;110044;1238;58966;-67
2023/08/03 05:55:34;;;;;;;7.60;5.60;;;;;;;22.00;100.00;100430.97;110041;1239;73603;-67
2023/08/03 05:58:04;;;;;;;7.70;5.10;;;;;;;22.10;100.00;100429.92;109937;1238;62567;-67
2023/08/03 06:00:32;;;;;;;9.20;5.60;;;;;;;22.25;100.00;100425.84;110030;1239;61648;-67
2023/08/03 06:03:02;;;;;;;7.20;4.00;;;;;;;22.26;100.00;100428.26;109992;1238;74824;-67
2023/08/03 06:05:43;;;;;;;8.20;4.10;;;;;;;22.35;100.00;100432.25;110011;1238;70805;-67
2023/08/03 06:08:24;;;;;;;5.60;4.10;;;;;;;22.45;100.00;100431.09;110003;1238;70318;-70
2023/08/03 06:11:00;;;;;;;7.10;4.40;;;;;;;22.53;100.00;100428.61;109989;1239;74586;-68
2023/08/03 06:13:38;;;;;;;5.70;4.50;;;;;;;22.61;100.00;100426.31;109877;1241;57404;-68
2023/08/03 06:16:13;;;;;;;5.20;3.90;;;;;;;22.69;100.00;100416.33;109750;1242;57723;-67
2023/08/03 06:18:58;;;;;;;6.50;3.80;;;;;;;22.73;100.00;100413.36;109909;1241;63496;-70
2023/08/03 06:21:28;;;;;;;5.80;3.50;;;;;;;22.83;100.00;100418.80;109671;1243;60938;-71
2023/08/03 06:23:58;;;;;;;5.10;3.70;;;;;;;22.95;100.00;100418.81;109957;1239;68708;-69
2023/08/03 06:26:31;;;;;;;5.70;4.10;;;;;;;23.00;100.00;100417.03;109664;1241;74051;-70
2023/08/03 06:29:02;;;;;;;6.40;3.90;;;;;;;23.03;100.00;100418.52;110006;1239;57574;-69
2023/08/03 06:31:37;;;;;;;7.50;4.80;;;;;;;23.17;100.00;100419.91;109967;1238;59797;-69
2023/08/03 06:34:14;;;;;;;7.40;4.90;;;;;;;23.21;100.00;100416.86;109994;1238;74040;-69
2023/08/03 06:36:44;;;;;;;6.80;4.80;;;;;;;23.38;100.00;100419.89;109780;1240;72516;-69
2023/08/03 06:39:13;;;;;;;7.00;5.40;;;;;;;23.35;100.00;100419.48;109912;1238;70938;-71
2023/08/03 06:41:42;;;;;;;6.80;5.20;;;;;;;23.39;100.00;100415.76;109766;1241;63378;-71
2023/08/03 06:44:14;;;;;;;8.00;5.40;;;;;;;23.52;100.00;100411.94;109947;1239;57657;-76
2023/08/03 06:46:43;;;;;;;10.40;4.90;;;;;;;23.60;100.00;100416.58;110028;1239;57118;-69
2023/08/03 06:49:12;;;;;;;6.90;4.80;;;;;;;23.75;100.00;100418.72;110064;1238;73544;-73
2023/08/03 06:51:40;;;;;;;7.80;5.40;;;;;;;23.86;100.00;100422.50;110025;1238;71622;-73
2023/08/03 06:54:10;;;;;;;7.40;5.40;;;;;;;23.76;100.00;100420.80;110041;1239;69602;-70
2023/08/03 06:56:38;;;;;;;9.30;5.80;;;;;;;23.83;100.00;100420.65;110019;1240;74159;-70
2023/08/03 06:59:07;;;;;;;11.30;5.50;;;;;;;23.93;100.00;100421.23;110024;1239;57724;-71
2023/08/03 07:01:36;;;;;;;9.50;6.00;;;;;;;23.99;100.00;100419.19;109854;1238;60339;-72
2023/08/03 07:04:06;;;;;;;7.80;6.20;;;;;;;24.23;100.00;100422.41;109955;1239;74045;-73
2023/08/03 07:06:34;;;;;;;8.10;5.80;;;;;;;24.29;100.00;100421.51;109952;1238;72484;-68
2023/08/03 07:09:03;;;;;;;7.50;5.90;;;;;;;24.37;100.00;100420.53;109787;1240;60299;-71
2023/08/03 07:11:32;;;;;;;9.90;6.10;;;;;;;24.46;100.00;100417.69;109952;1239;63078;-71
2023/08/03 07:14:01;;;;;;;7.20;5.80;;;;;;;24.63;100.00;100417.30;110045;1239;60268;-71
2023/08/03 07:16:30;;;;;;;8.40;5.90;;;;;;;24.71;100.00;100414.45;109926;1239;60826;-72
2023/08/03 07:18:58;;;;;;;11.70;6.40;;;;;;;24.55;100.00;100402.50;109943;1238;64959;-72
2023/08/03 07:21:27;;;;;;;7.50;5.60;;;;;;;24.66;100.00;100413.03;110075;1240;62117;-72
2023/08/03 07:23:56;;;;;;;7.90;6.00;;;;;;;24.82;100.00;100411.86;110204;1239;59041;-72
2023/08/03 07:26:25;;;;;;;7.40;6.10;;;;;;;24.96;100.00;100408.11;110196;1241;62460;-71
2023/08/03 07:28:54;;;;;;;7.50;5.70;;;;;;;24.94;100.00;100398.58;110084;1240;61078;-71
2023/08/03 07:31:24;;;;;;;9.80;6.30;;;;;;;25.12;100.00;100408.64;110046;1239;60558;-70
2023/08/03 07:33:53;;;;;;;7.90;5.20;;;;;;;25.28;100.00;100410.27;110001;1238;74199;-71
2023/08/03 07:36:21;;;;;;;7.80;6.30;;;;;;;25.32;100.00;100405.65;110064;1239;62821;-71
2023/08/03 07:38:52;;;;;;;9.20;5.80;;;;;;;25.39;100.00;100401.12;109816;1244;60223;-72
2023/08/03 07:41:21;;;;;;;7.10;5.20;;;;;;;25.52;100.00;100400.71;110038;1239;62475;-71
2023/08/03 07:43:50;;;;;;;7.40;5.70;;;;;;;25.72;100.00;100391.98;110112;1241;57522;-73
2023/08/03 07:46:19;;;;;;;7.50;5.50;;;;;;;25.80;100.00;100388.23;109836;1240;57731;-72
2023/08/03 07:48:48;;;;;;;7.60;5.40;;;;;;;25.92;100.00;100391.67;110022;1238;63833;-72
2023/08/03 07:51:17;;;;;;;6.70;4.80;;;;;;;26.05;100.00;100390.73;110008;1238;72891;-71
2023/08/03 07:53:50;;;;;;;7.60;5.10;;;;;;;26.05;99.97;100392.13;109807;1242;60844;-72
2023/08/03 07:56:22;;;;;;;7.50;5.20;;;;;;;26.16;92.83;100395.27;109951;1238;73483;-72
2023/08/03 07:58:51;;;;;;;6.90;5.30;;;;;;;26.19;89.76;100389.69;109916;1242;57096;-72
2023/08/03 08:01:21;;;;;;;5.40;4.10;;;;;;;26.35;89.51;100387.71;110036;1239;57730;-72
2023/08/03 08:03:50;;;;;;;5.90;4.30;;;;;;;26.35;87.28;100376.77;109942;1241;62705;-72
2023/08/03 08:06:20;;;;;;;4.70;3.90;;;;;;;26.39;84.83;100385.50;109972;1238;72888;-72
2023/08/03 08:08:51;;;;;;;4.40;3.80;;;;;;;26.51;84.34;100383.33;109833;1242;61352;-72
2023/08/03 08:11:21;;;;;;;5.20;3.70;;;;;;;26.72;85.39;100386.29;110032;1241;63054;-72
2023/08/03 08:13:50;;;;;;;6.00;4.10;;;;;;;26.80;83.03;100383.41;109721;1243;61017;-72
2023/08/03 08:16:18;;;;;;;6.60;3.80;;;;;;;26.89;83.45;100383.90;110026;1238;57677;-72
2023/08/03 08:18:47;;;;;;;4.30;3.20;;;;;;;27.05;82.30;100384.11;109986;1239;74561;-72
2023/08/03 08:21:16;;;;;;;5.60;3.00;;;;;;;27.20;77.68;100383.95;110057;1240;72332;-72
2023/08/03 08:23:45;;;;;;;3.50;2.70;;;;;;;27.14;77.12;100377.50;110003;1240;60716;-72
2023/08/03 08:26:17;;;;;;;3.70;2.80;;;;;;;27.13;75.89;100380.86;109940;1239;63019;-72
2023/08/03 08:28:47;;;;;;;3.10;2.80;;;;;;;27.06;75.64;100377.05;109802;1242;57811;-72
2023/08/03 08:31:32;;;;;;;5.20;3.30;;;;;;;26.95;76.83;100377.35;109844;1240;57684;-72
2023/08/03 08:34:03;;;;;;;4.80;3.50;;;;;;;27.11;76.96;100375.52;110079;1239;63972;-72
2023/08/03 08:36:32;;;;;;;3.80;3.10;;;;;;;27.27;74.57;100375.97;110090;1240;72346;-78
2023/08/03 08:39:01;;;;;;;4.50;3.20;;;;;;;27.28;74.37;100379.16;110033;1239;61482;-72
2023/08/03 08:41:30;;;;;;;5.20;3.20;;;;;;;27.35;75.58;100381.41;109999;1241;63259;-72
2023/08/03 08:43:59;;;;;;;5.50;3.20;;;;;;;27.42;75.31;100382.16;109909;1238;57711;-73
2023/08/03 08:46:28;;;;;;;3.90;3.20;;;;;;;27.47;76.14;100380.15;109894;1240;61592;-72
2023/08/03 08:48:57;;;;;;;6.80;3.30;;;;;;;27.54;74.56;100376.57;109946;1239;73468;-73
2023/08/03 08:51:27;;;;;;;4.40;3.00;;;;;;;27.67;73.82;100382.74;109996;1238;71716;-72
2023/08/03 08:53:58;;;;;;;3.50;2.70;;;;;;;27.90;70.62;100383.36;109868;1238;70760;-72
2023/08/03 08:56:30;;;;;;;4.90;3.20;;;;;;;27.92;71.09;100381.96;109983;1240;62716;-73
2023/08/03 08:59:02;;;;;;;4.40;2.80;;;;;;;27.93;70.51;100381.54;109918;1239;57668;-73
2023/08/03 09:01:51;;;;;;;;;;;;;;;27.96;71.19;100376.79;109928;1238;57158;-73
2023/08/03 09:04:31;;;;;;;3.60;2.90;;;;;;;28.17;69.66;100374.85;109743;1239;72549;-75
2023/08/03 09:07:03;;;;;;;4.50;2.80;;;;;;;28.22;68.97;100371.73;109779;1241;61655;-71
2023/08/03 09:09:36;;;;;;;4.50;3.00;;;;;;;28.21;68.36;100369.48;109128;1238;558652;-71
2023/08/03 09:12:06;;;;;;;3.60;2.80;;;;;;;28.25;69.05;100365.02;109613;1241;63635;-72
2023/08/03 09:14:50;;;;;;;4.70;2.60;;;;;;;28.51;67.55;100369.96;109788;1241;57941;-72
2023/08/03 09:17:22;;;;;;;9.60;6.00;;;;;;;28.46;66.83;100366.48;109872;1238;57593;-71
2023/08/03 09:19:53;;;;;;;7.20;3.20;;;;;;;28.42;69.40;100365.66;109816;1238;72889;-70
2023/08/03 09:22:26;;;;;;;6.10;3.50;;;;;;;28.62;68.07;100362.63;109744;1238;63609;-73
2023/08/03 09:25:07;;;;;;;4.80;3.10;;;;;;;28.72;67.31;100363.84;109971;1241;60395;-71
2023/08/03 09:27:46;;;;;;;4.90;2.90;;;;;;;28.87;66.57;100366.02;109778;1238;63874;-71
2023/08/03 09:30:18;;;;;;;3.90;3.00;;;;;;;28.96;66.99;100360.58;109963;1240;57640;-72
2023/08/03 09:32:47;;;;;;;4.60;2.90;;;;;;;28.99;66.13;100358.85;110051;1238;57321;-72
2023/08/03 09:35:23;;;;;;;5.10;2.80;;;;;;;29.15;64.59;100356.88;109766;1238;73062;-72
2023/08/03 09:37:54;;;;;;;5.40;2.70;;;;;;;29.26;61.50;100352.84;109684;1239;72509;-72
2023/08/03 09:40:23;;;;;;;4.30;3.00;;;;;;;29.30;62.33;100348.77;109906;1238;60502;-73
2023/08/03 09:42:54;;;;;;;4.10;3.00;;;;;;;29.46;62.45;100349.13;109981;1240;73783;-71
2023/08/03 09:45:25;;;;;;;4.30;2.90;;;;;;;29.31;62.91;100353.88;109772;1238;57824;-71
2023/08/03 09:47:58;;;;;;;3.10;2.50;;;;;;;29.29;60.20;100350.90;110022;1238;57439;-70
2023/08/03 09:50:31;;;;;;;5.10;2.70;;;;;;;29.41;60.95;100353.20;109885;1240;72221;-70
2023/08/03 09:53:04;;;;;;;4.50;2.90;;;;;;;29.58;58.78;100347.30;110002;1238;61470;-71
2023/08/03 09:55:53;;;;;;;2.70;1.90;;;;;;;29.45;55.82;100343.30;109910;1238;70439;-73
2023/08/03 09:58:28;;;;;;;3.90;2.40;;;;;;;29.55;55.93;100341.06;109887;1238;62817;-73
2023/08/03 10:01:01;;;;;;;3.30;2.40;;;;;;;29.80;57.33;100340.92;109646;1242;57131;-70
2023/08/03 10:03:32;;;;;;;4.20;2.90;;;;;;;29.82;56.38;100333.80;109621;1240;61048;-70
2023/08/03 10:06:16;;;;;;;5.40;2.90;;;;;;;29.90;53.07;100335.63;109791;1238;64977;-70
2023/08/03 10:08:59;;;;;;;4.80;2.20;;;;;;;29.95;54.57;100328.92;109776;1240;61430;-70
2023/08/03 10:11:33;;;;;;;5.30;2.70;;;;;;;30.20;52.55;100323.96;109869;1239;69735;-70
2023/08/03 10:14:04;;;;;;;3.80;2.50;;;;;;;30.27;51.22;100326.48;109767;1239;64315;-71
2023/08/03 10:16:34;;;;;;;3.80;2.60;;;;;;;30.43;50.70;100324.45;109793;1238;60535;-72
2023/08/03 10:19:05;;;;;;;4.10;2.40;;;;;;;30.50;49.12;100323.20;110020;1239;61312;-73
2023/08/03 10:21:36;;;;;;;7.70;4.70;;;;;;;30.54;48.97;100322.60;109897;1241;62710;-73
2023/08/03 10:24:13;;;;;;;4.50;2.10;;;;;;;30.51;47.88;100322.39;109751;1242;71019;-73
2023/08/03 10:26:43;;;;;;;5.70;2.80;;;;;;;30.44;46.68;100319.67;109921;1238;60400;-73
2023/08/03 10:29:12;;;;;;;4.00;2.00;;;;;;;30.60;46.80;100317.94;109566;1241;72946;-73
2023/08/03 10:31:55;;;;;;;3.50;1.90;;;;;;;30.96;46.52;100317.08;109784;1240;57165;-72
2023/08/03 10:34:29;;;;;;;4.10;2.20;;;;;;;31.18;45.30;100316.77;109875;1239;57743;-74
2023/08/03 10:36:58;;;;;;;2.70;1.70;;;;;;;31.25;44.61;100314.78;109748;1240;72688;-72
2023/08/03 10:39:50;;;;;;;5.30;2.40;;;;;;;31.71;43.69;100309.64;109980;1240;71869;-72
2023/08/03 10:42:28;;;;;;;3.80;2.10;;;;;;;31.66;42.28;100304.84;110017;1238;70785;-72
2023/08/03 10:45:22;;;;;;;3.40;2.00;;;;;;;32.23;42.00;100299.33;109836;1238;62640;-77
2023/08/03 10:47:52;;;;;;;3.50;1.90;;;;;;;32.89;41.15;100291.73;109833;1239;60099;-72
2023/08/03 10:50:58;;;;;;;3.30;1.90;;;;;;;32.87;40.69;100297.95;109734;1238;61416;-75
2023/08/03 10:53:27;;;;;;;5.40;1.90;;;;;;;32.98;40.10;100290.52;109793;1238;65181;-73
2023/08/03 10:56:10;;;;;;;2.80;1.70;;;;;;;33.07;40.17;100292.95;109770;1238;72618;-72
2023/08/03 10:58:50;;;;;;;4.30;1.80;;;;;;;33.53;39.71;100292.41;109790;1241;69575;-74
2023/08/03 11:01:24;;;;;;;2.40;1.80;;;;;;;33.84;38.45;100288.57;109601;1241;73853;-73
2023/08/03 11:03:54;;;;;;;4.50;2.70;;;;;;;34.13;37.83;100286.64;109624;1239;57820;-73
2023/08/03 11:06:24;;;;;;;3.80;2.20;;;;;;;33.63;36.92;100288.77;109857;1238;60218;-72
2023/08/03 11:08:54;;;;;;;4.00;2.40;;;;;;;33.67;37.63;100289.48;109810;1239;73100;-72
2023/08/03 11:11:32;;;;;;;6.10;1.80;;;;;;;33.93;37.35;100286.65;109620;1238;62890;-74
2023/08/03 11:14:08;;;;;;;2.90;1.80;;;;;;;33.84;37.35;100287.20;109610;1238;60397;-74
2023/08/03 11:16:38;;;;;;;3.80;1.90;;;;;;;34.03;37.66;100282.23;109618;1238;73837;-73
2023/08/03 11:19:07;;;;;;;2.40;1.80;;;;;;;34.08;36.75;100284.14;109719;1239;61924;-74
2023/08/03 11:21:35;;;;;;;2.70;1.50;;;;;;;34.04;36.20;100282.83;109541;1240;61522;-74
2023/08/03 11:24:05;;;;;;;2.50;1.60;;;;;;;34.82;35.13;100282.50;109879;1238;73319;-73